createdAt,value
2018-08-10T00:01:41.903Z,101262.34
2018-08-10T00:04:15.688Z,101267.14
2018-08-10T00:06:47.004Z,101269.77
2018-08-10T00:09:18.482Z,101277.02
2018-08-10T00:11:47.994Z,101276.18
2018-08-10T00:14:17.227Z,101291.91
2018-08-10T00:17:02.197Z,101295.28
2018-08-10T00:19:33.175Z,101307.26
2018-08-10T00:22:04.888Z,101312.99
2018-08-10T00:24:34.526Z,101314.78
2018-08-10T00:27:05.844Z,101315.80
2018-08-10T00:29:39.563Z,101325.78
2018-08-10T00:32:12.223Z,101334.92
2018-08-10T00:34:42.509Z,101348.45
2018-08-10T00:37:19.505Z,101352.04
2018-08-10T00:39:50.264Z,101351.27
2018-08-10T00:42:22.705Z,101355.79
2018-08-10T00:44:52.376Z,101364.91
2018-08-10T00:47:25.189Z,101368.78
2018-08-10T00:49:54.834Z,101375.84
2018-08-10T00:52:24.621Z,101377.40
2018-08-10T00:54:53.846Z,101377.40
2018-08-10T00:57:23.818Z,101384.11
2018-08-10T00:59:53.199Z,101392.54
2018-08-10T01:02:23.517Z,101387.98
2018-08-10T01:04:53.774Z,101388.34
2018-08-10T01:07:27.206Z,101391.36
2018-08-10T01:10:03.414Z,101387.17
2018-08-10T01:12:38.191Z,101388.92
2018-08-10T01:15:09.698Z,101401.41
2018-08-10T01:17:40.024Z,101395.16
2018-08-10T01:20:20.130Z,101393.97
2018-08-10T01:22:54.602Z,101412.17
2018-08-10T01:25:25.333Z,101413.35
2018-08-10T01:27:58.443Z,101430.40
2018-08-10T01:30:29.291Z,101425.67
2018-08-10T01:32:59.153Z,101426.00
2018-08-10T01:35:29.232Z,101424.66
2018-08-10T01:38:00.952Z,101423.33
2018-08-10T01:40:30.599Z,101441.52
2018-08-10T01:43:00.620Z,101440.33
2018-08-10T01:45:32.810Z,101440.83
2018-08-10T01:48:02.308Z,101445.88
2018-08-10T01:50:31.881Z,101452.12
2018-08-10T01:53:01.727Z,101460.17
2018-08-10T01:55:32.140Z,101462.53
2018-08-10T01:58:02.651Z,101463.91
2018-08-10T02:00:33.845Z,101462.53
2018-08-10T02:03:03.368Z,101461.87
2018-08-10T02:05:32.802Z,101458.95
2018-08-10T02:08:03.855Z,101468.95
2018-08-10T02:10:38.160Z,101468.76
2018-08-10T02:13:08.281Z,101470.61
2018-08-10T02:15:46.092Z,101480.34
2018-08-10T02:18:16.413Z,101475.11
2018-08-10T02:20:45.826Z,101480.16
2018-08-10T02:23:15.217Z,101486.39
2018-08-10T02:25:45.000Z,101372.73
2018-08-10T02:28:14.552Z,101479.81
2018-08-10T02:30:44.780Z,101484.20
2018-08-10T02:33:14.359Z,101488.93
2018-08-10T02:35:44.251Z,101489.09
2018-08-10T02:38:13.977Z,101490.44
2018-08-10T02:40:43.696Z,101493.31
2018-08-10T02:43:13.337Z,101493.28
2018-08-10T02:45:43.007Z,101493.27
2018-08-10T02:48:13.033Z,101501.45
2018-08-10T02:50:43.048Z,101494.27
2018-08-10T02:53:13.105Z,101498.51
2018-08-10T02:55:42.698Z,101500.95
2018-08-10T02:58:12.473Z,101508.88
2018-08-10T03:00:42.442Z,101516.17
2018-08-10T03:03:12.353Z,101515.27
2018-08-10T03:05:46.850Z,101519.16
2018-08-10T03:08:16.245Z,101521.05
2018-08-10T03:10:46.045Z,101524.25
2018-08-10T03:13:15.670Z,101528.98
2018-08-10T03:15:45.236Z,101469.71
2018-08-10T03:18:14.608Z,101529.09
2018-08-10T03:20:43.991Z,101493.64
2018-08-10T03:23:14.214Z,101539.70
2018-08-10T03:25:43.451Z,101542.25
2018-08-10T03:28:12.909Z,101536.66
2018-08-10T03:30:42.512Z,101541.75
2018-08-10T03:33:11.690Z,101552.88
2018-08-10T03:35:40.950Z,101543.39
2018-08-10T03:38:10.644Z,101551.97
2018-08-10T03:40:40.467Z,101548.89
2018-08-10T03:43:09.856Z,101554.09
2018-08-10T03:45:39.464Z,101552.39
2018-08-10T03:48:08.915Z,101554.43
2018-08-10T03:50:38.271Z,101560.39
2018-08-10T03:53:07.573Z,101561.10
2018-08-10T03:55:36.910Z,101564.80
2018-08-10T03:58:10.429Z,101569.67
2018-08-10T04:00:39.894Z,101570.82
2018-08-10T04:03:09.683Z,101571.47
2018-08-10T04:05:40.443Z,101579.76
2018-08-10T04:08:09.974Z,101576.92
2018-08-10T04:10:40.526Z,101572.53
2018-08-10T04:13:11.701Z,101580.62
2018-08-10T04:15:42.435Z,101587.05
2018-08-10T04:18:12.778Z,101584.91
2018-08-10T04:20:43.128Z,101582.84
2018-08-10T04:23:14.051Z,101588.33
2018-08-10T04:25:45.049Z,101589.71
2018-08-10T04:28:15.090Z,101593.20
2018-08-10T04:30:47.452Z,101594.98
2018-08-10T04:33:17.494Z,101601.70
2018-08-10T04:35:48.311Z,101533.64
2018-08-10T04:38:17.901Z,101606.67
2018-08-10T04:40:49.219Z,101611.64
2018-08-10T04:43:19.023Z,101612.59
2018-08-10T04:45:49.464Z,101611.56
2018-08-10T04:48:41.923Z,101619.06
2018-08-10T04:51:11.032Z,101621.36
2018-08-10T04:53:40.777Z,101619.73
2018-08-10T04:56:10.641Z,101626.47
2018-08-10T04:58:45.555Z,101629.95
2018-08-10T05:01:16.014Z,101630.92
2018-08-10T05:03:45.543Z,101629.38
2018-08-10T05:06:16.080Z,101625.83
2018-08-10T05:08:46.655Z,101633.84
2018-08-10T05:11:16.582Z,101632.47
2018-08-10T05:13:51.016Z,101627.69
2018-08-10T05:16:20.979Z,101640.06
2018-08-10T05:18:50.304Z,101635.73
2018-08-10T05:24:03.015Z,101646.22
2018-08-10T05:26:35.280Z,101648.92
2018-08-10T05:29:07.629Z,101648.42
2018-08-10T05:31:40.466Z,101651.61
2018-08-10T05:34:10.928Z,101647.55
2018-08-10T05:36:40.863Z,101656.98
2018-08-10T05:42:35.201Z,101656.98
2018-08-10T05:45:19.432Z,101661.56
2018-08-10T05:47:50.067Z,101660.16
2018-08-10T05:50:19.658Z,101667.94
2018-08-10T05:52:50.619Z,101664.00
2018-08-10T05:55:20.269Z,101668.46
2018-08-10T05:57:49.656Z,101667.09
2018-08-10T06:00:20.479Z,101665.77
2018-08-10T06:02:50.162Z,101677.77
2018-08-10T06:05:25.374Z,101672.50
2018-08-10T06:07:55.591Z,101672.78
2018-08-10T06:10:25.081Z,101672.06
2018-08-10T06:12:54.609Z,101673.25
2018-08-10T06:15:35.312Z,101680.78
2018-08-10T06:18:04.853Z,101686.11
2018-08-10T06:20:34.724Z,101650.59
2018-08-10T06:23:04.793Z,101688.06
2018-08-10T06:25:35.008Z,101690.21
2018-08-10T06:28:09.409Z,101703.02
2018-08-10T06:30:38.982Z,101689.61
2018-08-10T06:33:08.468Z,101694.03
2018-08-10T06:35:39.362Z,101687.75
2018-08-10T06:38:09.239Z,101695.59
2018-08-10T06:40:39.880Z,101705.86
2018-08-10T06:43:10.149Z,101700.55
2018-08-10T06:45:40.068Z,101716.84
2018-08-10T06:48:10.155Z,101708.17
2018-08-10T06:53:31.402Z,101715.70
2018-08-10T06:56:03.113Z,101714.84
2018-08-10T06:58:38.327Z,101710.37
2018-08-10T07:01:12.513Z,101715.02
2018-08-10T07:03:43.625Z,101705.16
2018-08-10T07:06:16.763Z,101710.23
2018-08-10T07:08:46.943Z,101719.83
2018-08-10T07:11:20.457Z,101717.97
2018-08-10T07:13:51.357Z,101723.73
2018-08-10T07:16:22.132Z,101716.75
2018-08-10T07:18:54.269Z,101721.95
2018-08-10T07:21:24.693Z,101721.23
2018-08-10T07:23:56.195Z,101721.71
2018-08-10T07:26:27.367Z,101671.96
2018-08-10T07:28:57.826Z,101718.16
2018-08-10T07:31:28.789Z,101714.86
2018-08-10T07:33:59.576Z,101711.95
2018-08-10T07:36:28.878Z,101724.02
2018-08-10T07:39:03.680Z,101720.11
2018-08-10T07:41:32.983Z,101717.30
2018-08-10T07:44:02.601Z,101716.20
2018-08-10T07:46:32.480Z,101718.14
2018-08-10T07:49:05.064Z,101716.55
2018-08-10T07:51:44.866Z,101724.91
2018-08-10T07:54:19.078Z,101724.17
2018-08-10T07:56:51.433Z,101727.80
2018-08-10T07:59:22.927Z,101724.05
2018-08-10T08:01:54.413Z,101723.80
2018-08-10T08:04:24.668Z,101717.84
2018-08-10T08:07:00.451Z,101722.33
2018-08-10T08:09:29.950Z,101732.58
2018-08-10T08:12:01.254Z,101736.27
2018-08-10T08:14:32.524Z,101727.67
2018-08-10T08:17:03.015Z,101732.72
2018-08-10T08:19:32.774Z,101744.97
2018-08-10T08:22:02.781Z,101692.21
2018-08-10T08:24:33.410Z,101738.16
2018-08-10T08:27:02.874Z,101738.86
2018-08-10T08:29:44.734Z,101744.97
2018-08-10T08:32:16.279Z,101742.86
2018-08-10T08:34:46.766Z,101744.22
2018-08-10T08:37:17.865Z,101739.56
2018-08-10T08:40:52.681Z,101745.31
2018-08-10T08:43:33.521Z,101749.79
2018-08-10T08:46:07.720Z,101738.49
2018-08-10T08:48:40.217Z,101737.27
2018-08-10T08:51:12.801Z,101750.36
2018-08-10T08:53:43.002Z,101763.03
2018-08-10T08:56:14.788Z,101744.23
2018-08-10T08:58:45.303Z,101757.43
2018-08-10T09:01:16.851Z,101757.00
2018-08-10T09:04:57.942Z,101746.92
2018-08-10T09:07:29.921Z,101752.26
2018-08-10T09:10:02.650Z,101756.02
2018-08-10T09:12:35.288Z,101758.86
2018-08-10T09:17:57.769Z,101762.66
2018-08-10T09:20:37.981Z,101764.55
2018-08-10T09:23:10.375Z,101760.22
2018-08-10T09:25:44.059Z,101757.74
2018-08-10T09:28:21.157Z,101769.15
2018-08-10T09:30:55.063Z,101770.59
2018-08-10T09:33:46.598Z,101738.63
2018-08-10T09:36:28.116Z,101757.43
2018-08-10T09:39:08.852Z,101758.14
2018-08-10T09:41:53.375Z,101752.93
2018-08-10T09:44:34.127Z,101761.22
2018-08-10T09:47:04.627Z,101761.50
2018-08-10T09:49:42.616Z,101757.38
2018-08-10T09:52:15.015Z,101758.27
2018-08-10T09:55:22.698Z,101767.12
2018-08-10T09:57:56.286Z,101764.94
2018-08-10T10:00:35.475Z,101758.14
2018-08-10T10:03:30.861Z,101754.78
2018-08-10T10:06:01.694Z,101745.05
2018-08-10T10:08:33.091Z,101757.25
2018-08-10T10:11:02.749Z,101762.16
2018-08-10T10:13:32.555Z,101768.92
2018-08-10T10:16:03.122Z,101760.13
2018-08-10T10:18:34.393Z,101750.05
2018-08-10T10:21:03.706Z,101757.39
2018-08-10T10:23:38.615Z,101693.01
2018-08-10T10:26:08.232Z,101764.75
2018-08-10T10:28:44.089Z,101764.03
2018-08-10T10:31:16.901Z,101764.09
2018-08-10T10:33:46.477Z,101757.90
2018-08-10T10:36:18.780Z,101748.19
2018-08-10T10:38:51.636Z,101765.03
2018-08-10T10:41:21.772Z,101753.19
2018-08-10T10:43:51.264Z,101762.53
2018-08-10T10:49:02.528Z,101753.05
2018-08-10T10:51:32.909Z,101761.98
2018-08-10T10:54:05.108Z,101751.68
2018-08-10T10:56:36.072Z,101763.34
2018-08-10T11:02:08.134Z,101758.41
2018-08-10T11:04:43.698Z,101757.66
2018-08-10T11:07:13.505Z,101751.09
2018-08-10T11:09:44.904Z,101754.66
2018-08-10T11:12:15.589Z,101746.22
2018-08-10T11:14:47.558Z,101749.72
2018-08-10T11:17:18.974Z,101755.92
2018-08-10T11:19:54.022Z,101757.24
2018-08-10T11:22:26.522Z,101743.59
2018-08-10T11:24:57.780Z,101751.20
2018-08-10T11:27:32.473Z,101746.25
2018-08-10T11:30:17.730Z,101739.55
2018-08-10T11:33:02.519Z,101740.17
2018-08-10T11:35:34.697Z,101747.80
2018-08-10T11:38:07.546Z,101749.48
2018-08-10T11:40:40.031Z,101752.67
2018-08-10T11:43:29.099Z,101744.74
2018-08-10T11:46:01.460Z,101747.86
2018-08-10T11:48:31.784Z,101743.45
2018-08-10T11:51:35.547Z,101743.13
2018-08-10T11:54:10.190Z,101738.32
2018-08-10T11:56:41.302Z,101737.34
2018-08-10T11:59:11.855Z,101727.91
2018-08-10T12:01:43.387Z,101742.70
2018-08-10T12:04:28.742Z,101738.95
2018-08-10T12:07:02.750Z,101730.10
2018-08-10T12:09:39.642Z,101733.18
2018-08-10T12:12:14.560Z,101723.66
2018-08-10T12:14:48.000Z,101721.14
2018-08-10T12:17:20.470Z,101733.98
2018-08-10T12:19:51.233Z,101721.23
2018-08-10T12:22:21.955Z,101730.55
2018-08-10T12:24:51.872Z,101687.75
2018-08-10T12:27:37.396Z,101722.47
2018-08-10T12:30:10.189Z,101717.30
2018-08-10T12:32:39.539Z,101712.48
2018-08-10T12:35:10.793Z,101712.55
2018-08-10T12:37:43.587Z,101724.02
2018-08-10T12:40:15.293Z,101717.64
2018-08-10T12:42:45.085Z,101713.55
2018-08-10T12:45:32.319Z,101720.92
2018-08-10T12:48:02.410Z,101727.44
2018-08-10T12:53:11.962Z,101724.42
2018-08-10T12:55:48.276Z,101725.69
2018-08-10T12:58:27.591Z,101720.94
2018-08-10T13:01:13.101Z,101720.39
2018-08-10T13:03:46.220Z,101716.66
2018-08-10T13:06:17.100Z,101717.29
2018-08-10T13:08:53.567Z,101723.39
2018-08-10T13:11:33.105Z,101705.66
2018-08-10T13:14:05.681Z,101722.19
2018-08-10T13:16:37.485Z,101723.44
2018-08-10T13:19:10.463Z,101725.61
2018-08-10T13:21:43.216Z,101706.38
2018-08-10T13:24:14.209Z,101716.34
2018-08-10T13:26:51.197Z,101721.66
2018-08-10T13:29:25.046Z,101723.72
2018-08-10T13:31:56.315Z,101709.80
2018-08-10T13:34:38.578Z,101714.55
2018-08-10T13:37:09.663Z,101717.38
2018-08-10T13:39:39.551Z,101705.53
2018-08-10T13:42:10.937Z,101699.33
2018-08-10T13:44:42.429Z,101706.80
2018-08-10T13:47:34.527Z,101703.14
2018-08-10T13:50:14.476Z,101696.77
2018-08-10T13:52:46.164Z,101691.70
2018-08-10T13:55:22.218Z,101693.85
2018-08-10T13:57:52.564Z,101691.23
2018-08-10T14:00:23.744Z,101686.46
2018-08-10T14:02:59.515Z,101680.09
2018-08-10T14:05:29.960Z,101682.16
2018-08-10T14:08:03.310Z,101679.30
2018-08-10T14:10:35.633Z,101678.16
2018-08-10T14:13:05.895Z,101684.23
2018-08-10T14:15:36.870Z,101677.02
2018-08-10T14:18:09.077Z,101665.66
2018-08-10T14:20:45.716Z,101661.34
2018-08-10T14:23:16.308Z,101672.11
2018-08-10T14:25:45.966Z,101667.58
2018-08-10T14:28:16.244Z,101622.78
2018-08-10T14:30:50.882Z,101641.92
2018-08-10T14:33:21.665Z,101649.02
2018-08-10T14:35:57.656Z,101654.84
2018-08-10T14:38:27.154Z,101647.44
2018-08-10T14:40:58.099Z,101648.06
2018-08-10T14:43:27.994Z,101648.73
2018-08-10T14:45:58.610Z,101642.42
2018-08-10T14:48:35.808Z,101642.30
2018-08-10T14:51:05.298Z,101649.27
2018-08-10T14:53:37.214Z,101642.06
2018-08-10T14:56:09.297Z,101647.87
2018-08-10T14:59:00.715Z,101643.86
2018-08-10T15:01:30.474Z,101638.22
2018-08-10T15:04:02.204Z,101641.54
2018-08-10T15:06:31.832Z,101631.36
2018-08-10T15:09:01.251Z,101634.62
2018-08-10T15:11:31.410Z,101630.98
2018-08-10T15:14:02.220Z,101633.81
2018-08-10T15:16:33.448Z,101633.11
2018-08-10T15:19:03.563Z,101625.59
2018-08-10T15:21:32.935Z,101623.08
2018-08-10T15:24:06.024Z,101616.94
2018-08-10T15:26:44.667Z,101609.61
2018-08-10T15:29:16.964Z,101617.14
2018-08-10T15:31:47.165Z,101615.52
2018-08-10T15:34:17.876Z,101601.87
2018-08-10T15:36:47.443Z,101604.67
2018-08-10T15:39:19.814Z,101607.84
2018-08-10T15:41:54.767Z,101595.30
2018-08-10T15:44:32.986Z,101610.63
2018-08-10T15:47:06.654Z,101616.93
2018-08-10T15:49:39.305Z,101611.75
2018-08-10T15:52:11.639Z,101601.17
2018-08-10T15:54:44.224Z,101606.95
2018-08-10T15:57:14.494Z,101592.97
2018-08-10T15:59:47.224Z,101597.11
2018-08-10T16:02:20.055Z,101593.70
2018-08-10T16:04:50.464Z,101588.38
2018-08-10T16:07:22.115Z,101587.48
2018-08-10T16:09:53.256Z,101595.26
2018-08-10T16:12:22.952Z,101591.69
2018-08-10T16:14:56.615Z,101577.08
2018-08-10T16:17:30.618Z,101579.53
2018-08-10T16:20:02.543Z,101578.12
2018-08-10T16:22:36.811Z,101587.16
2018-08-10T16:25:11.097Z,101576.97
2018-08-10T16:27:48.044Z,101577.32
2018-08-10T16:30:20.557Z,101576.41
2018-08-10T16:32:51.922Z,101576.22
2018-08-10T16:35:22.453Z,101583.31
2018-08-10T16:37:56.582Z,101576.33
2018-08-10T16:40:27.300Z,101580.00
2018-08-10T16:42:57.744Z,101579.16
2018-08-10T16:45:28.473Z,101574.03
2018-08-10T16:51:05.134Z,101570.25
2018-08-10T16:53:36.132Z,101568.22
2018-08-10T16:56:11.265Z,101526.58
2018-08-10T16:58:44.122Z,101572.39
2018-08-10T17:01:19.694Z,101572.26
2018-08-10T17:03:51.114Z,101524.44
2018-08-10T17:06:22.591Z,101575.09
2018-08-10T17:08:54.228Z,101566.98
2018-08-10T17:11:31.740Z,101572.60
2018-08-10T17:14:03.986Z,101574.94
2018-08-10T17:16:33.622Z,101569.50
2018-08-10T17:19:03.878Z,101570.24
2018-08-10T17:21:40.866Z,101571.89
2018-08-10T17:24:11.090Z,101564.00
2018-08-10T17:26:41.790Z,101561.12
2018-08-10T17:29:15.817Z,101567.31
2018-08-10T17:31:47.436Z,101557.50
2018-08-10T17:34:20.663Z,101554.34
2018-08-10T17:36:51.224Z,101557.66
2018-08-10T17:39:22.744Z,101558.95
2018-08-10T17:41:54.349Z,101557.62
2018-08-10T17:44:28.090Z,101556.06
2018-08-10T17:46:59.959Z,101555.45
2018-08-10T17:49:31.857Z,101550.64
2018-08-10T17:52:04.182Z,101551.38
2018-08-10T17:54:39.942Z,101557.75
2018-08-10T17:57:10.380Z,101557.78
2018-08-10T17:59:41.457Z,101556.91
2018-08-10T18:02:11.925Z,101555.25
2018-08-10T18:05:06.473Z,101518.76
2018-08-10T18:07:42.407Z,101556.57
2018-08-10T18:10:15.032Z,101560.77
2018-08-10T18:12:47.044Z,101552.27
2018-08-10T18:15:23.575Z,101551.44
2018-08-10T18:17:55.719Z,101554.28
2018-08-10T18:20:29.312Z,101560.36
2018-08-10T18:23:00.312Z,101550.70
2018-08-10T18:25:32.065Z,101553.95
2018-08-10T18:28:08.806Z,101553.33
2018-08-10T18:30:41.799Z,101548.83
2018-08-10T18:33:14.263Z,101547.98
2018-08-10T18:35:49.760Z,101549.55
2018-08-10T18:38:25.650Z,101545.38
2018-08-10T18:40:57.487Z,101547.48
2018-08-10T18:43:30.463Z,101546.03
2018-08-10T18:46:03.358Z,101542.31
2018-08-10T18:48:37.393Z,101550.12
2018-08-10T18:51:15.113Z,101544.10
2018-08-10T18:53:49.535Z,101545.89
2018-08-10T18:56:21.172Z,101549.14
2018-08-10T18:58:52.981Z,101548.58
2018-08-10T19:01:25.479Z,101546.59
2018-08-10T19:03:57.198Z,101549.53
2018-08-10T19:06:28.907Z,101540.50
2018-08-10T19:09:02.820Z,101540.97
2018-08-10T19:11:39.732Z,101542.78
2018-08-10T19:14:12.709Z,101548.39
2018-08-10T19:17:05.089Z,101549.98
2018-08-10T19:19:36.210Z,101558.55
2018-08-10T19:22:15.597Z,101552.33
2018-08-10T19:24:57.168Z,101553.00
2018-08-10T19:27:29.533Z,101555.82
2018-08-10T19:30:04.239Z,101554.72
2018-08-10T19:32:35.359Z,101556.70
2018-08-10T19:35:07.158Z,101557.19
2018-08-10T19:37:40.812Z,101557.83
2018-08-10T19:40:16.776Z,101567.78
2018-08-10T19:42:50.869Z,101567.55
2018-08-10T19:45:33.865Z,101566.24
2018-08-10T19:48:14.142Z,101570.84
2018-08-10T19:50:47.600Z,101570.55
2018-08-10T19:53:34.233Z,101564.09
2018-08-10T19:56:10.052Z,101570.55
2018-08-10T19:58:51.940Z,101567.78
2018-08-10T20:01:25.740Z,101567.19
2018-08-10T20:06:41.384Z,101568.79
2018-08-10T20:09:14.699Z,101561.83
2018-08-10T20:11:45.726Z,101559.63
2018-08-10T20:14:16.749Z,101563.98
2018-08-10T20:16:53.923Z,101560.50
2018-08-10T20:19:25.013Z,101558.27
2018-08-10T20:21:54.790Z,101547.53
2018-08-10T20:24:33.516Z,101551.22
2018-08-10T20:27:12.178Z,101548.83
2018-08-10T20:29:49.030Z,101553.83
2018-08-10T20:32:29.252Z,101553.67
2018-08-10T20:35:00.977Z,101552.47
2018-08-10T20:37:35.265Z,101543.38
2018-08-10T20:40:07.113Z,101545.09
2018-08-10T20:42:38.270Z,101538.06
2018-08-10T20:45:12.857Z,101538.81
2018-08-10T20:47:47.694Z,101455.66
2018-08-10T20:50:26.227Z,101541.79
2018-08-10T20:52:58.572Z,101542.72
2018-08-10T20:55:30.060Z,101539.16
2018-08-10T20:58:01.806Z,101538.18
2018-08-10T21:00:37.445Z,101540.17
2018-08-10T21:03:18.689Z,101547.97
2018-08-10T21:05:52.689Z,101538.78
2018-08-10T21:08:30.469Z,101541.34
2018-08-10T21:11:01.927Z,101543.30
2018-08-10T21:13:33.349Z,101550.31
2018-08-10T21:16:05.306Z,101546.94
2018-08-10T21:18:35.492Z,101543.92
2018-08-10T21:21:15.879Z,101544.48
2018-08-10T21:23:47.380Z,101537.92
2018-08-10T21:26:17.682Z,101540.81
2018-08-10T21:28:59.998Z,101537.08
2018-08-10T21:31:34.263Z,101541.66
2018-08-10T21:34:16.321Z,101539.56
2018-08-10T21:36:49.270Z,101540.70
2018-08-10T21:42:44.515Z,101535.57
2018-08-10T21:45:21.790Z,101545.48
2018-08-10T21:47:55.837Z,101540.56
2018-08-10T21:50:33.229Z,101537.27
2018-08-10T21:53:03.759Z,101538.56
2018-08-10T21:55:35.756Z,101535.83
2018-08-10T21:58:08.150Z,101531.40
2018-08-10T22:00:51.759Z,101532.76
2018-08-10T22:03:23.738Z,101529.25
2018-08-10T22:05:53.139Z,101530.16
2018-08-10T22:08:23.799Z,101529.20
2018-08-10T22:10:53.813Z,101524.11
2018-08-10T22:13:29.393Z,101522.63
2018-08-10T22:16:06.215Z,101522.44
2018-08-10T22:18:41.611Z,101525.13
2018-08-10T22:21:11.750Z,101522.80
2018-08-10T22:23:41.751Z,101520.17
2018-08-10T22:26:12.711Z,101520.23
2018-08-10T22:28:43.899Z,101521.00
2018-08-10T22:31:13.783Z,101523.05
2018-08-10T22:33:43.129Z,101521.45
2018-08-10T22:36:12.678Z,101522.54
2018-08-10T22:38:42.347Z,101523.27
2018-08-10T22:41:12.404Z,101519.89
2018-08-10T22:43:44.081Z,101529.91
2018-08-10T22:46:14.223Z,101523.77
2018-08-10T22:48:44.492Z,101527.25
2018-08-10T22:51:13.921Z,101529.38
2018-08-10T22:53:47.980Z,101525.91
2018-08-10T22:56:18.828Z,101526.85
2018-08-10T22:58:56.808Z,101521.88
2018-08-10T23:01:28.479Z,101520.95
2018-08-10T23:03:58.820Z,101524.84
2018-08-10T23:06:32.575Z,101523.23
2018-08-10T23:09:05.879Z,101516.95
2018-08-10T23:11:36.011Z,101513.69
2018-08-10T23:14:05.642Z,101515.11
2018-08-10T23:16:36.475Z,101514.63
2018-08-10T23:19:07.910Z,101512.14
2018-08-10T23:21:37.986Z,101511.18
2018-08-10T23:24:07.912Z,101508.69
2018-08-10T23:26:40.279Z,101507.52
2018-08-10T23:29:09.950Z,101502.16
2018-08-10T23:31:39.736Z,101499.16
2018-08-10T23:34:10.036Z,101503.47
2018-08-10T23:36:40.692Z,101503.19
2018-08-10T23:39:15.703Z,101496.08
2018-08-10T23:41:46.228Z,101498.44
2018-08-10T23:44:15.904Z,101495.20
2018-08-10T23:46:48.593Z,101489.45
2018-08-10T23:49:19.292Z,101483.75
2018-08-10T23:51:50.447Z,101482.30
2018-08-10T23:54:20.753Z,101481.00
2018-08-10T23:56:52.460Z,101486.31
2018-08-10T23:59:25.698Z,101481.45
